sensor_id;sensor_type;location;lat;lon;timestamp;P1;durP1;ratioP1;P2;durP2;ratioP2
19535;SDS011;9913;51.168;4.124;2023-05-29T00:00:51;17.25;;;10.40;;
19535;SDS011;9913;51.168;4.124;2023-05-29T00:03:21;19.20;;;10.25;;
19535;SDS011;9913;51.168;4.124;2023-05-29T00:05:49;18.63;;;10.27;;
19535;SDS011;9913;51.168;4.124;2023-05-29T00:08:18;14.55;;;9.32;;
19535;SDS011;9913;51.168;4.124;2023-05-29T00:10:46;15.90;;;9.50;;
19535;SDS011;9913;51.168;4.124;2023-05-29T00:13:14;19.33;;;9.27;;
19535;SDS011;9913;51.168;4.124;2023-05-29T00:15:43;17.80;;;9.05;;
19535;SDS011;9913;51.168;4.124;2023-05-29T00:18:11;16.10;;;8.57;;
19535;SDS011;9913;51.168;4.124;2023-05-29T00:20:41;12.73;;;8.30;;
19535;SDS011;9913;51.168;4.124;2023-05-29T00:23:09;16.88;;;8.25;;
19535;SDS011;9913;51.168;4.124;2023-05-29T00:25:37;16.58;;;7.97;;
19535;SDS011;9913;51.168;4.124;2023-05-29T00:28:07;18.77;;;7.68;;
19535;SDS011;9913;51.168;4.124;2023-05-29T00:30:36;13.77;;;7.25;;
19535;SDS011;9913;51.168;4.124;2023-05-29T00:33:04;16.77;;;7.75;;
19535;SDS011;9913;51.168;4.124;2023-05-29T00:35:32;14.95;;;7.70;;
19535;SDS011;9913;51.168;4.124;2023-05-29T00:38:02;15.85;;;7.78;;
19535;SDS011;9913;51.168;4.124;2023-05-29T00:40:31;12.82;;;7.53;;
19535;SDS011;9913;51.168;4.124;2023-05-29T00:42:59;14.93;;;6.97;;
19535;SDS011;9913;51.168;4.124;2023-05-29T00:45:27;15.90;;;6.90;;
19535;SDS011;9913;51.168;4.124;2023-05-29T00:47:57;10.57;;;5.63;;
19535;SDS011;9913;51.168;4.124;2023-05-29T00:50:26;14.73;;;5.47;;
19535;SDS011;9913;51.168;4.124;2023-05-29T00:52:54;15.32;;;5.82;;
19535;SDS011;9913;51.168;4.124;2023-05-29T00:55:24;13.07;;;5.68;;
19535;SDS011;9913;51.168;4.124;2023-05-29T00:57:55;13.53;;;5.70;;
19535;SDS011;9913;51.168;4.124;2023-05-29T01:00:24;8.57;;;4.70;;
19535;SDS011;9913;51.168;4.124;2023-05-29T01:02:52;10.73;;;4.85;;
19535;SDS011;9913;51.168;4.124;2023-05-29T01:05:21;11.10;;;4.83;;
19535;SDS011;9913;51.168;4.124;2023-05-29T01:07:50;11.20;;;4.97;;
19535;SDS011;9913;51.168;4.124;2023-05-29T01:10:18;10.35;;;4.45;;
19535;SDS011;9913;51.168;4.124;2023-05-29T01:12:49;13.75;;;5.57;;
19535;SDS011;9913;51.168;4.124;2023-05-29T01:15:24;9.47;;;4.37;;
19535;SDS011;9913;51.168;4.124;2023-05-29T01:18:10;12.85;;;4.95;;
19535;SDS011;9913;51.168;4.124;2023-05-29T01:20:48;12.70;;;4.22;;
19535;SDS011;9913;51.168;4.124;2023-05-29T01:26:48;13.07;;;4.90;;
19535;SDS011;9913;51.168;4.124;2023-05-29T01:29:21;11.50;;;4.47;;
19535;SDS011;9913;51.168;4.124;2023-05-29T01:31:53;17.67;;;4.70;;
19535;SDS011;9913;51.168;4.124;2023-05-29T01:34:22;10.63;;;4.17;;
19535;SDS011;9913;51.168;4.124;2023-05-29T01:36:50;9.87;;;3.90;;
19535;SDS011;9913;51.168;4.124;2023-05-29T01:39:18;10.73;;;4.07;;
19535;SDS011;9913;51.168;4.124;2023-05-29T01:41:49;8.30;;;4.10;;
19535;SDS011;9913;51.168;4.124;2023-05-29T01:44:18;10.67;;;3.90;;
19535;SDS011;9913;51.168;4.124;2023-05-29T01:46:47;10.38;;;3.65;;
19535;SDS011;9913;51.168;4.124;2023-05-29T01:49:17;13.73;;;4.67;;
19535;SDS011;9913;51.168;4.124;2023-05-29T01:51:45;13.53;;;4.23;;
19535;SDS011;9913;51.168;4.124;2023-05-29T01:54:14;9.47;;;3.10;;
19535;SDS011;9913;51.168;4.124;2023-05-29T01:56:43;12.57;;;3.97;;
19535;SDS011;9913;51.168;4.124;2023-05-29T01:59:15;11.47;;;4.30;;
19535;SDS011;9913;51.168;4.124;2023-05-29T02:01:43;12.77;;;3.50;;
19535;SDS011;9913;51.168;4.124;2023-05-29T02:04:12;8.87;;;3.80;;
19535;SDS011;9913;51.168;4.124;2023-05-29T02:06:41;11.30;;;3.83;;
19535;SDS011;9913;51.168;4.124;2023-05-29T02:09:10;11.70;;;4.43;;
19535;SDS011;9913;51.168;4.124;2023-05-29T02:11:38;12.10;;;4.33;;
19535;SDS011;9913;51.168;4.124;2023-05-29T02:14:11;13.40;;;3.73;;
19535;SDS011;9913;51.168;4.124;2023-05-29T02:16:41;10.90;;;3.80;;
19535;SDS011;9913;51.168;4.124;2023-05-29T02:19:10;14.00;;;4.30;;
19535;SDS011;9913;51.168;4.124;2023-05-29T02:21:39;18.33;;;5.40;;
19535;SDS011;9913;51.168;4.124;2023-05-29T02:24:07;13.97;;;3.97;;
19535;SDS011;9913;51.168;4.124;2023-05-29T02:26:36;8.20;;;3.47;;
19535;SDS011;9913;51.168;4.124;2023-05-29T02:29:04;7.70;;;3.43;;
19535;SDS011;9913;51.168;4.124;2023-05-29T02:31:33;10.17;;;3.33;;
19535;SDS011;9913;51.168;4.124;2023-05-29T02:34:05;13.60;;;4.33;;
19535;SDS011;9913;51.168;4.124;2023-05-29T02:36:33;12.67;;;3.27;;
19535;SDS011;9913;51.168;4.124;2023-05-29T02:39:04;11.33;;;3.27;;
19535;SDS011;9913;51.168;4.124;2023-05-29T02:41:33;12.57;;;4.57;;
19535;SDS011;9913;51.168;4.124;2023-05-29T02:44:01;12.13;;;3.57;;
19535;SDS011;9913;51.168;4.124;2023-05-29T02:46:29;8.93;;;3.50;;
19535;SDS011;9913;51.168;4.124;2023-05-29T02:48:58;11.57;;;4.00;;
19535;SDS011;9913;51.168;4.124;2023-05-29T02:51:27;11.27;;;3.30;;
19535;SDS011;9913;51.168;4.124;2023-05-29T02:53:56;16.13;;;4.20;;
19535;SDS011;9913;51.168;4.124;2023-05-29T02:56:25;12.30;;;3.80;;
19535;SDS011;9913;51.168;4.124;2023-05-29T02:58:53;10.17;;;3.33;;
19535;SDS011;9913;51.168;4.124;2023-05-29T03:01:22;10.50;;;3.40;;
19535;SDS011;9913;51.168;4.124;2023-05-29T03:03:50;13.07;;;3.73;;
19535;SDS011;9913;51.168;4.124;2023-05-29T03:06:19;10.43;;;4.13;;
19535;SDS011;9913;51.168;4.124;2023-05-29T03:08:49;9.67;;;4.37;;
19535;SDS011;9913;51.168;4.124;2023-05-29T03:11:17;11.50;;;3.97;;
19535;SDS011;9913;51.168;4.124;2023-05-29T03:13:47;11.00;;;3.87;;
19535;SDS011;9913;51.168;4.124;2023-05-29T03:16:16;9.47;;;3.47;;
19535;SDS011;9913;51.168;4.124;2023-05-29T03:18:45;11.60;;;3.50;;
19535;SDS011;9913;51.168;4.124;2023-05-29T03:21:16;11.57;;;3.80;;
19535;SDS011;9913;51.168;4.124;2023-05-29T03:23:44;10.47;;;3.60;;
19535;SDS011;9913;51.168;4.124;2023-05-29T03:26:14;10.67;;;3.73;;
19535;SDS011;9913;51.168;4.124;2023-05-29T03:28:44;15.90;;;4.20;;
19535;SDS011;9913;51.168;4.124;2023-05-29T03:31:12;15.00;;;3.87;;
19535;SDS011;9913;51.168;4.124;2023-05-29T03:33:40;12.60;;;4.30;;
19535;SDS011;9913;51.168;4.124;2023-05-29T03:36:18;13.33;;;3.90;;
19535;SDS011;9913;51.168;4.124;2023-05-29T03:38:47;15.23;;;4.37;;
19535;SDS011;9913;51.168;4.124;2023-05-29T03:41:18;17.80;;;5.07;;
19535;SDS011;9913;51.168;4.124;2023-05-29T03:43:47;12.33;;;4.23;;
19535;SDS011;9913;51.168;4.124;2023-05-29T03:46:17;15.77;;;4.07;;
19535;SDS011;9913;51.168;4.124;2023-05-29T03:48:45;15.40;;;4.03;;
19535;SDS011;9913;51.168;4.124;2023-05-29T03:51:14;14.90;;;4.27;;
19535;SDS011;9913;51.168;4.124;2023-05-29T03:53:43;11.13;;;4.17;;
19535;SDS011;9913;51.168;4.124;2023-05-29T03:56:12;12.83;;;3.90;;
19535;SDS011;9913;51.168;4.124;2023-05-29T03:58:41;17.53;;;4.60;;
19535;SDS011;9913;51.168;4.124;2023-05-29T04:01:11;12.70;;;4.33;;
19535;SDS011;9913;51.168;4.124;2023-05-29T04:03:40;16.77;;;4.03;;
19535;SDS011;9913;51.168;4.124;2023-05-29T04:06:10;8.80;;;4.00;;
19535;SDS011;9913;51.168;4.124;2023-05-29T04:08:39;12.97;;;4.23;;
19535;SDS011;9913;51.168;4.124;2023-05-29T04:11:08;11.90;;;4.00;;
19535;SDS011;9913;51.168;4.124;2023-05-29T04:13:38;10.60;;;3.77;;
19535;SDS011;9913;51.168;4.124;2023-05-29T04:16:10;14.50;;;3.90;;
19535;SDS011;9913;51.168;4.124;2023-05-29T04:18:39;12.73;;;4.20;;
19535;SDS011;9913;51.168;4.124;2023-05-29T04:21:07;14.90;;;4.23;;
19535;SDS011;9913;51.168;4.124;2023-05-29T04:23:36;12.43;;;4.13;;
19535;SDS011;9913;51.168;4.124;2023-05-29T04:26:04;11.07;;;3.30;;
19535;SDS011;9913;51.168;4.124;2023-05-29T04:28:35;14.97;;;3.67;;
19535;SDS011;9913;51.168;4.124;2023-05-29T04:31:05;13.53;;;3.83;;
19535;SDS011;9913;51.168;4.124;2023-05-29T04:33:37;14.10;;;4.40;;
19535;SDS011;9913;51.168;4.124;2023-05-29T04:36:05;12.80;;;4.40;;
19535;SDS011;9913;51.168;4.124;2023-05-29T04:38:37;15.47;;;4.00;;
19535;SDS011;9913;51.168;4.124;2023-05-29T04:41:06;12.67;;;3.70;;
19535;SDS011;9913;51.168;4.124;2023-05-29T04:43:37;9.83;;;3.47;;
19535;SDS011;9913;51.168;4.124;2023-05-29T04:46:07;18.73;;;4.07;;
19535;SDS011;9913;51.168;4.124;2023-05-29T04:48:41;17.50;;;5.13;;
19535;SDS011;9913;51.168;4.124;2023-05-29T04:51:10;16.67;;;4.20;;
19535;SDS011;9913;51.168;4.124;2023-05-29T04:53:39;12.23;;;4.00;;
19535;SDS011;9913;51.168;4.124;2023-05-29T04:56:09;21.63;;;4.87;;
19535;SDS011;9913;51.168;4.124;2023-05-29T04:58:38;12.10;;;3.70;;
19535;SDS011;9913;51.168;4.124;2023-05-29T05:01:07;13.27;;;3.70;;
19535;SDS011;9913;51.168;4.124;2023-05-29T05:03:37;11.60;;;3.53;;
19535;SDS011;9913;51.168;4.124;2023-05-29T05:06:07;13.97;;;4.20;;
19535;SDS011;9913;51.168;4.124;2023-05-29T05:08:36;14.67;;;3.97;;
19535;SDS011;9913;51.168;4.124;2023-05-29T05:11:04;14.53;;;4.07;;
19535;SDS011;9913;51.168;4.124;2023-05-29T05:13:33;13.43;;;4.17;;
19535;SDS011;9913;51.168;4.124;2023-05-29T05:16:02;15.13;;;3.63;;
19535;SDS011;9913;51.168;4.124;2023-05-29T05:18:31;16.03;;;5.27;;
19535;SDS011;9913;51.168;4.124;2023-05-29T05:21:03;16.93;;;3.57;;
19535;SDS011;9913;51.168;4.124;2023-05-29T05:23:35;15.87;;;4.40;;
19535;SDS011;9913;51.168;4.124;2023-05-29T05:26:25;15.10;;;3.37;;
19535;SDS011;9913;51.168;4.124;2023-05-29T05:28:54;13.77;;;4.37;;
19535;SDS011;9913;51.168;4.124;2023-05-29T05:31:26;11.17;;;3.30;;
19535;SDS011;9913;51.168;4.124;2023-05-29T05:33:54;17.83;;;4.20;;
19535;SDS011;9913;51.168;4.124;2023-05-29T05:36:23;13.33;;;4.33;;
19535;SDS011;9913;51.168;4.124;2023-05-29T05:38:58;15.40;;;4.17;;
19535;SDS011;9913;51.168;4.124;2023-05-29T05:41:27;11.50;;;4.53;;
19535;SDS011;9913;51.168;4.124;2023-05-29T05:43:55;14.53;;;3.63;;
19535;SDS011;9913;51.168;4.124;2023-05-29T05:46:29;13.90;;;3.53;;
19535;SDS011;9913;51.168;4.124;2023-05-29T05:48:57;8.53;;;3.00;;
19535;SDS011;9913;51.168;4.124;2023-05-29T05:51:27;14.20;;;3.60;;
19535;SDS011;9913;51.168;4.124;2023-05-29T05:53:58;13.20;;;4.00;;
19535;SDS011;9913;51.168;4.124;2023-05-29T05:56:27;14.00;;;3.87;;
19535;SDS011;9913;51.168;4.124;2023-05-29T05:58:56;12.03;;;3.90;;
19535;SDS011;9913;51.168;4.124;2023-05-29T06:01:24;14.43;;;3.67;;
19535;SDS011;9913;51.168;4.124;2023-05-29T06:03:53;12.13;;;3.40;;
19535;SDS011;9913;51.168;4.124;2023-05-29T06:06:22;16.97;;;4.23;;
19535;SDS011;9913;51.168;4.124;2023-05-29T06:08:51;14.40;;;3.63;;
19535;SDS011;9913;51.168;4.124;2023-05-29T06:11:22;13.43;;;4.70;;
19535;SDS011;9913;51.168;4.124;2023-05-29T06:13:52;12.87;;;3.80;;
19535;SDS011;9913;51.168;4.124;2023-05-29T06:16:27;8.50;;;3.00;;
19535;SDS011;9913;51.168;4.124;2023-05-29T06:18:56;12.80;;;3.00;;
19535;SDS011;9913;51.168;4.124;2023-05-29T06:21:26;7.60;;;3.28;;
19535;SDS011;9913;51.168;4.124;2023-05-29T06:23:55;9.40;;;2.97;;
19535;SDS011;9913;51.168;4.124;2023-05-29T06:26:27;13.83;;;4.07;;
19535;SDS011;9913;51.168;4.124;2023-05-29T06:28:56;15.93;;;3.28;;
19535;SDS011;9913;51.168;4.124;2023-05-29T06:31:25;8.40;;;3.20;;
19535;SDS011;9913;51.168;4.124;2023-05-29T06:33:53;9.67;;;3.17;;
19535;SDS011;9913;51.168;4.124;2023-05-29T06:36:22;11.23;;;3.30;;
19535;SDS011;9913;51.168;4.124;2023-05-29T06:38:50;12.13;;;3.13;;
19535;SDS011;9913;51.168;4.124;2023-05-29T06:41:20;9.00;;;3.00;;
19535;SDS011;9913;51.168;4.124;2023-05-29T06:43:50;12.57;;;3.85;;
19535;SDS011;9913;51.168;4.124;2023-05-29T06:46:20;9.80;;;2.90;;
19535;SDS011;9913;51.168;4.124;2023-05-29T06:48:49;9.55;;;2.75;;
19535;SDS011;9913;51.168;4.124;2023-05-29T06:51:19;9.87;;;2.90;;
19535;SDS011;9913;51.168;4.124;2023-05-29T06:53:47;10.32;;;3.03;;
19535;SDS011;9913;51.168;4.124;2023-05-29T06:56:16;13.68;;;3.85;;
19535;SDS011;9913;51.168;4.124;2023-05-29T06:58:45;9.68;;;3.47;;
19535;SDS011;9913;51.168;4.124;2023-05-29T07:01:16;13.05;;;3.92;;
19535;SDS011;9913;51.168;4.124;2023-05-29T07:03:54;11.68;;;2.90;;
19535;SDS011;9913;51.168;4.124;2023-05-29T07:06:23;9.43;;;3.00;;
19535;SDS011;9913;51.168;4.124;2023-05-29T07:08:51;10.77;;;3.20;;
19535;SDS011;9913;51.168;4.124;2023-05-29T07:11:20;10.25;;;3.28;;
19535;SDS011;9913;51.168;4.124;2023-05-29T07:13:48;11.00;;;2.97;;
19535;SDS011;9913;51.168;4.124;2023-05-29T07:16:18;8.73;;;2.85;;
19535;SDS011;9913;51.168;4.124;2023-05-29T07:18:58;14.07;;;3.22;;
19535;SDS011;9913;51.168;4.124;2023-05-29T07:21:30;7.53;;;2.58;;
19535;SDS011;9913;51.168;4.124;2023-05-29T07:23:59;11.35;;;2.88;;
19535;SDS011;9913;51.168;4.124;2023-05-29T07:26:28;13.65;;;3.40;;
19535;SDS011;9913;51.168;4.124;2023-05-29T07:28:57;8.85;;;3.20;;
19535;SDS011;9913;51.168;4.124;2023-05-29T07:31:29;13.35;;;3.50;;
19535;SDS011;9913;51.168;4.124;2023-05-29T07:33:57;14.25;;;3.33;;
19535;SDS011;9913;51.168;4.124;2023-05-29T07:36:28;11.05;;;3.58;;
19535;SDS011;9913;51.168;4.124;2023-05-29T07:38:59;14.43;;;3.85;;
19535;SDS011;9913;51.168;4.124;2023-05-29T07:41:28;12.02;;;3.65;;
19535;SDS011;9913;51.168;4.124;2023-05-29T07:43:57;8.38;;;2.78;;
19535;SDS011;9913;51.168;4.124;2023-05-29T07:46:25;10.98;;;3.90;;
19535;SDS011;9913;51.168;4.124;2023-05-29T07:49:08;8.00;;;2.80;;
19535;SDS011;9913;51.168;4.124;2023-05-29T07:51:37;14.32;;;3.42;;
19535;SDS011;9913;51.168;4.124;2023-05-29T07:54:05;10.85;;;2.83;;
19535;SDS011;9913;51.168;4.124;2023-05-29T07:56:34;12.45;;;2.70;;
19535;SDS011;9913;51.168;4.124;2023-05-29T07:59:11;11.93;;;3.25;;
19535;SDS011;9913;51.168;4.124;2023-05-29T08:01:39;7.65;;;2.47;;
19535;SDS011;9913;51.168;4.124;2023-05-29T08:04:16;7.85;;;2.90;;
19535;SDS011;9913;51.168;4.124;2023-05-29T08:06:45;14.35;;;3.80;;
19535;SDS011;9913;51.168;4.124;2023-05-29T08:09:13;9.13;;;3.25;;
19535;SDS011;9913;51.168;4.124;2023-05-29T08:11:41;12.07;;;3.60;;
19535;SDS011;9913;51.168;4.124;2023-05-29T08:14:12;8.57;;;2.92;;
19535;SDS011;9913;51.168;4.124;2023-05-29T08:16:42;10.80;;;3.40;;
19535;SDS011;9913;51.168;4.124;2023-05-29T08:19:10;8.23;;;3.17;;
19535;SDS011;9913;51.168;4.124;2023-05-29T08:21:40;11.95;;;3.30;;
19535;SDS011;9913;51.168;4.124;2023-05-29T08:24:09;6.85;;;3.20;;
19535;SDS011;9913;51.168;4.124;2023-05-29T08:26:37;12.73;;;3.42;;
19535;SDS011;9913;51.168;4.124;2023-05-29T08:29:05;9.35;;;3.40;;
19535;SDS011;9913;51.168;4.124;2023-05-29T08:31:34;12.52;;;3.42;;
19535;SDS011;9913;51.168;4.124;2023-05-29T08:34:02;9.68;;;2.85;;
19535;SDS011;9913;51.168;4.124;2023-05-29T08:36:30;11.00;;;3.15;;
19535;SDS011;9913;51.168;4.124;2023-05-29T08:39:00;9.50;;;3.03;;
19535;SDS011;9913;51.168;4.124;2023-05-29T08:41:32;9.75;;;3.15;;
19535;SDS011;9913;51.168;4.124;2023-05-29T08:44:09;11.13;;;3.28;;
19535;SDS011;9913;51.168;4.124;2023-05-29T08:46:41;9.90;;;3.55;;
19535;SDS011;9913;51.168;4.124;2023-05-29T08:49:11;11.52;;;3.58;;
19535;SDS011;9913;51.168;4.124;2023-05-29T08:51:44;7.72;;;2.90;;
19535;SDS011;9913;51.168;4.124;2023-05-29T08:54:18;9.70;;;3.17;;
19535;SDS011;9913;51.168;4.124;2023-05-29T08:56:47;11.45;;;3.00;;
19535;SDS011;9913;51.168;4.124;2023-05-29T08:59:15;13.88;;;2.95;;
19535;SDS011;9913;51.168;4.124;2023-05-29T09:01:45;10.60;;;3.15;;
19535;SDS011;9913;51.168;4.124;2023-05-29T09:04:13;13.90;;;3.22;;
19535;SDS011;9913;51.168;4.124;2023-05-29T09:06:42;11.75;;;3.05;;
19535;SDS011;9913;51.168;4.124;2023-05-29T09:09:15;13.02;;;3.45;;
19535;SDS011;9913;51.168;4.124;2023-05-29T09:11:45;9.27;;;3.00;;
19535;SDS011;9913;51.168;4.124;2023-05-29T09:17:00;10.35;;;3.55;;
19535;SDS011;9913;51.168;4.124;2023-05-29T09:19:29;13.85;;;3.90;;
19535;SDS011;9913;51.168;4.124;2023-05-29T09:22:00;12.07;;;3.80;;
19535;SDS011;9913;51.168;4.124;2023-05-29T09:24:31;14.05;;;3.80;;
19535;SDS011;9913;51.168;4.124;2023-05-29T09:27:09;11.57;;;3.60;;
19535;SDS011;9913;51.168;4.124;2023-05-29T09:29:39;11.30;;;3.65;;
19535;SDS011;9913;51.168;4.124;2023-05-29T09:32:09;11.60;;;3.97;;
19535;SDS011;9913;51.168;4.124;2023-05-29T09:34:38;11.82;;;3.38;;
19535;SDS011;9913;51.168;4.124;2023-05-29T09:37:07;11.88;;;3.58;;
19535;SDS011;9913;51.168;4.124;2023-05-29T09:39:44;12.00;;;3.90;;
19535;SDS011;9913;51.168;4.124;2023-05-29T09:42:14;10.15;;;3.33;;
19535;SDS011;9913;51.168;4.124;2023-05-29T09:44:44;8.32;;;3.00;;
19535;SDS011;9913;51.168;4.124;2023-05-29T09:47:16;10.43;;;3.25;;
19535;SDS011;9913;51.168;4.124;2023-05-29T09:49:45;9.35;;;2.67;;
19535;SDS011;9913;51.168;4.124;2023-05-29T09:52:14;11.90;;;4.25;;
19535;SDS011;9913;51.168;4.124;2023-05-29T09:54:43;8.90;;;3.00;;
19535;SDS011;9913;51.168;4.124;2023-05-29T09:57:14;10.75;;;3.80;;
19535;SDS011;9913;51.168;4.124;2023-05-29T09:59:44;13.25;;;3.45;;
19535;SDS011;9913;51.168;4.124;2023-05-29T10:02:18;11.45;;;3.67;;
19535;SDS011;9913;51.168;4.124;2023-05-29T10:04:47;10.25;;;4.15;;
19535;SDS011;9913;51.168;4.124;2023-05-29T10:07:20;10.85;;;3.28;;
19535;SDS011;9913;51.168;4.124;2023-05-29T10:09:54;10.93;;;3.15;;
19535;SDS011;9913;51.168;4.124;2023-05-29T10:12:34;9.05;;;3.13;;
19535;SDS011;9913;51.168;4.124;2023-05-29T10:15:07;13.65;;;3.60;;
19535;SDS011;9913;51.168;4.124;2023-05-29T10:17:41;9.55;;;3.25;;
19535;SDS011;9913;51.168;4.124;2023-05-29T10:20:17;10.45;;;3.55;;
19535;SDS011;9913;51.168;4.124;2023-05-29T10:22:49;9.40;;;2.88;;
19535;SDS011;9913;51.168;4.124;2023-05-29T10:25:19;7.85;;;2.92;;
19535;SDS011;9913;51.168;4.124;2023-05-29T10:27:50;9.10;;;2.90;;
19535;SDS011;9913;51.168;4.124;2023-05-29T10:30:21;10.13;;;3.28;;
19535;SDS011;9913;51.168;4.124;2023-05-29T10:35:55;12.75;;;2.72;;
19535;SDS011;9913;51.168;4.124;2023-05-29T10:38:31;10.27;;;2.95;;
19535;SDS011;9913;51.168;4.124;2023-05-29T10:43:57;9.73;;;2.75;;
19535;SDS011;9913;51.168;4.124;2023-05-29T10:49:29;6.82;;;2.70;;
19535;SDS011;9913;51.168;4.124;2023-05-29T10:51:58;6.43;;;2.80;;
19535;SDS011;9913;51.168;4.124;2023-05-29T10:54:27;10.35;;;3.20;;
19535;SDS011;9913;51.168;4.124;2023-05-29T10:57:07;9.80;;;3.17;;
19535;SDS011;9913;51.168;4.124;2023-05-29T10:59:38;9.02;;;3.35;;
19535;SDS011;9913;51.168;4.124;2023-05-29T11:02:06;12.23;;;3.53;;
19535;SDS011;9913;51.168;4.124;2023-05-29T11:04:36;11.27;;;3.83;;
19535;SDS011;9913;51.168;4.124;2023-05-29T11:07:04;11.93;;;2.92;;
19535;SDS011;9913;51.168;4.124;2023-05-29T11:09:35;9.88;;;3.45;;
19535;SDS011;9913;51.168;4.124;2023-05-29T11:12:16;8.70;;;3.70;;
19535;SDS011;9913;51.168;4.124;2023-05-29T11:15:05;10.95;;;3.90;;
19535;SDS011;9913;51.168;4.124;2023-05-29T11:17:43;10.05;;;3.47;;
19535;SDS011;9913;51.168;4.124;2023-05-29T11:20:18;6.97;;;2.72;;
19535;SDS011;9913;51.168;4.124;2023-05-29T11:23:00;10.23;;;3.08;;
19535;SDS011;9913;51.168;4.124;2023-05-29T11:25:33;8.65;;;3.20;;
19535;SDS011;9913;51.168;4.124;2023-05-29T11:28:03;10.00;;;3.08;;
19535;SDS011;9913;51.168;4.124;2023-05-29T11:30:46;8.45;;;3.10;;
19535;SDS011;9913;51.168;4.124;2023-05-29T11:33:19;7.15;;;3.40;;
19535;SDS011;9913;51.168;4.124;2023-05-29T11:35:54;7.97;;;3.47;;
19535;SDS011;9913;51.168;4.124;2023-05-29T11:38:25;10.73;;;3.35;;
19535;SDS011;9913;51.168;4.124;2023-05-29T11:40:54;7.88;;;3.35;;
19535;SDS011;9913;51.168;4.124;2023-05-29T11:43:23;8.27;;;3.17;;
19535;SDS011;9913;51.168;4.124;2023-05-29T11:45:53;10.52;;;3.35;;
19535;SDS011;9913;51.168;4.124;2023-05-29T11:48:22;8.93;;;3.50;;
19535;SDS011;9913;51.168;4.124;2023-05-29T11:50:51;7.80;;;3.20;;
19535;SDS011;9913;51.168;4.124;2023-05-29T11:53:20;7.53;;;3.05;;
19535;SDS011;9913;51.168;4.124;2023-05-29T11:55:48;11.60;;;3.97;;
19535;SDS011;9913;51.168;4.124;2023-05-29T11:58:17;10.32;;;3.25;;
19535;SDS011;9913;51.168;4.124;2023-05-29T12:00:45;10.43;;;3.33;;
19535;SDS011;9913;51.168;4.124;2023-05-29T12:03:18;11.23;;;3.72;;
19535;SDS011;9913;51.168;4.124;2023-05-29T12:05:48;10.70;;;3.10;;
19535;SDS011;9913;51.168;4.124;2023-05-29T12:08:21;13.15;;;4.18;;
19535;SDS011;9913;51.168;4.124;2023-05-29T12:10:51;12.75;;;3.80;;
19535;SDS011;9913;51.168;4.124;2023-05-29T12:13:20;11.25;;;3.58;;
19535;SDS011;9913;51.168;4.124;2023-05-29T12:15:52;10.63;;;3.50;;
19535;SDS011;9913;51.168;4.124;2023-05-29T12:18:24;8.95;;;3.65;;
19535;SDS011;9913;51.168;4.124;2023-05-29T12:20:57;9.75;;;3.30;;
19535;SDS011;9913;51.168;4.124;2023-05-29T12:23:26;8.18;;;2.95;;
19535;SDS011;9913;51.168;4.124;2023-05-29T12:25:55;9.60;;;3.55;;
19535;SDS011;9913;51.168;4.124;2023-05-29T12:28:25;8.73;;;3.42;;
19535;SDS011;9913;51.168;4.124;2023-05-29T12:30:58;11.38;;;4.05;;
19535;SDS011;9913;51.168;4.124;2023-05-29T12:33:31;5.78;;;3.15;;
19535;SDS011;9913;51.168;4.124;2023-05-29T12:36:01;8.25;;;3.05;;
19535;SDS011;9913;51.168;4.124;2023-05-29T12:38:30;8.18;;;3.15;;
19535;SDS011;9913;51.168;4.124;2023-05-29T12:40:58;13.50;;;3.25;;
19535;SDS011;9913;51.168;4.124;2023-05-29T12:43:26;8.45;;;3.28;;
19535;SDS011;9913;51.168;4.124;2023-05-29T12:45:56;5.82;;;3.25;;
19535;SDS011;9913;51.168;4.124;2023-05-29T12:48:27;10.75;;;3.30;;
19535;SDS011;9913;51.168;4.124;2023-05-29T12:50:57;6.25;;;3.17;;
19535;SDS011;9913;51.168;4.124;2023-05-29T12:53:28;6.53;;;3.63;;
19535;SDS011;9913;51.168;4.124;2023-05-29T12:55:57;6.57;;;2.70;;
19535;SDS011;9913;51.168;4.124;2023-05-29T12:58:28;7.85;;;3.03;;
19535;SDS011;9913;51.168;4.124;2023-05-29T13:00:57;7.53;;;3.30;;
19535;SDS011;9913;51.168;4.124;2023-05-29T13:03:25;8.75;;;3.10;;
19535;SDS011;9913;51.168;4.124;2023-05-29T13:05:54;7.75;;;3.45;;
19535;SDS011;9913;51.168;4.124;2023-05-29T13:08:25;6.10;;;3.13;;
19535;SDS011;9913;51.168;4.124;2023-05-29T13:10:53;12.70;;;3.50;;
19535;SDS011;9913;51.168;4.124;2023-05-29T13:13:22;8.32;;;3.40;;
19535;SDS011;9913;51.168;4.124;2023-05-29T13:15:50;6.07;;;2.75;;
19535;SDS011;9913;51.168;4.124;2023-05-29T13:18:18;5.93;;;3.15;;
19535;SDS011;9913;51.168;4.124;2023-05-29T13:20:47;11.23;;;3.47;;
19535;SDS011;9913;51.168;4.124;2023-05-29T13:23:20;9.25;;;3.53;;
19535;SDS011;9913;51.168;4.124;2023-05-29T13:25:50;8.50;;;2.80;;
19535;SDS011;9913;51.168;4.124;2023-05-29T13:28:19;6.55;;;2.90;;
19535;SDS011;9913;51.168;4.124;2023-05-29T13:30:48;9.07;;;3.58;;
19535;SDS011;9913;51.168;4.124;2023-05-29T13:33:16;7.00;;;3.13;;
19535;SDS011;9913;51.168;4.124;2023-05-29T13:35:44;6.57;;;2.85;;
19535;SDS011;9913;51.168;4.124;2023-05-29T13:38:13;9.02;;;3.10;;
19535;SDS011;9913;51.168;4.124;2023-05-29T13:40:41;6.63;;;2.65;;
19535;SDS011;9913;51.168;4.124;2023-05-29T13:43:11;8.63;;;3.05;;
19535;SDS011;9913;51.168;4.124;2023-05-29T13:45:39;6.53;;;3.42;;
19535;SDS011;9913;51.168;4.124;2023-05-29T13:48:08;8.93;;;2.80;;
19535;SDS011;9913;51.168;4.124;2023-05-29T13:50:36;8.52;;;3.15;;
19535;SDS011;9913;51.168;4.124;2023-05-29T13:53:04;6.20;;;2.97;;
19535;SDS011;9913;51.168;4.124;2023-05-29T13:55:33;9.05;;;2.60;;
19535;SDS011;9913;51.168;4.124;2023-05-29T13:58:01;6.22;;;2.67;;
19535;SDS011;9913;51.168;4.124;2023-05-29T14:00:31;8.90;;;3.20;;
19535;SDS011;9913;51.168;4.124;2023-05-29T14:02:59;7.47;;;2.85;;
19535;SDS011;9913;51.168;4.124;2023-05-29T14:05:27;8.57;;;3.10;;
19535;SDS011;9913;51.168;4.124;2023-05-29T14:07:56;6.97;;;2.55;;
19535;SDS011;9913;51.168;4.124;2023-05-29T14:10:24;13.25;;;3.25;;
19535;SDS011;9913;51.168;4.124;2023-05-29T14:12:53;6.88;;;2.65;;
19535;SDS011;9913;51.168;4.124;2023-05-29T14:15:22;6.22;;;2.55;;
19535;SDS011;9913;51.168;4.124;2023-05-29T14:17:51;7.35;;;2.90;;
19535;SDS011;9913;51.168;4.124;2023-05-29T14:20:20;7.30;;;2.90;;
19535;SDS011;9913;51.168;4.124;2023-05-29T14:22:48;12.63;;;3.45;;
19535;SDS011;9913;51.168;4.124;2023-05-29T14:25:17;6.43;;;2.83;;
19535;SDS011;9913;51.168;4.124;2023-05-29T14:27:45;4.70;;;2.47;;
19535;SDS011;9913;51.168;4.124;2023-05-29T14:30:13;7.30;;;2.58;;
19535;SDS011;9913;51.168;4.124;2023-05-29T14:32:42;7.28;;;2.70;;
19535;SDS011;9913;51.168;4.124;2023-05-29T14:35:12;10.23;;;3.95;;
19535;SDS011;9913;51.168;4.124;2023-05-29T14:37:40;12.20;;;4.28;;
19535;SDS011;9913;51.168;4.124;2023-05-29T14:40:09;14.90;;;4.30;;
19535;SDS011;9913;51.168;4.124;2023-05-29T14:42:37;7.97;;;2.97;;
19535;SDS011;9913;51.168;4.124;2023-05-29T14:45:06;7.07;;;3.17;;
19535;SDS011;9913;51.168;4.124;2023-05-29T14:47:35;7.13;;;2.80;;
19535;SDS011;9913;51.168;4.124;2023-05-29T14:50:04;7.45;;;3.15;;
19535;SDS011;9913;51.168;4.124;2023-05-29T14:52:34;10.30;;;2.88;;
19535;SDS011;9913;51.168;4.124;2023-05-29T14:55:03;12.32;;;4.45;;
19535;SDS011;9913;51.168;4.124;2023-05-29T14:57:32;10.15;;;3.03;;
19535;SDS011;9913;51.168;4.124;2023-05-29T15:00:03;10.20;;;3.60;;
19535;SDS011;9913;51.168;4.124;2023-05-29T15:02:32;8.85;;;2.92;;
19535;SDS011;9913;51.168;4.124;2023-05-29T15:05:01;6.88;;;2.75;;
19535;SDS011;9913;51.168;4.124;2023-05-29T15:07:29;6.65;;;3.08;;
19535;SDS011;9913;51.168;4.124;2023-05-29T15:10:02;6.85;;;2.70;;
19535;SDS011;9913;51.168;4.124;2023-05-29T15:12:31;8.57;;;3.63;;
19535;SDS011;9913;51.168;4.124;2023-05-29T15:15:01;8.68;;;2.75;;
19535;SDS011;9913;51.168;4.124;2023-05-29T15:17:31;6.88;;;3.10;;
19535;SDS011;9913;51.168;4.124;2023-05-29T15:20:00;9.68;;;3.03;;
19535;SDS011;9913;51.168;4.124;2023-05-29T15:22:31;8.48;;;3.33;;
19535;SDS011;9913;51.168;4.124;2023-05-29T15:24:59;10.75;;;3.60;;